createdAt,value
2018-06-17T00:00:17.943Z,22.67
2018-06-17T00:02:46.108Z,22.78
2018-06-17T00:05:13.576Z,22.82
2018-06-17T00:07:41.045Z,22.82
2018-06-17T00:10:08.533Z,22.83
2018-06-17T00:12:35.994Z,22.84
2018-06-17T00:15:03.538Z,22.84
2018-06-17T00:17:31.027Z,22.82
2018-06-17T00:19:58.781Z,22.84
2018-06-17T00:22:26.261Z,22.80
2018-06-17T00:24:53.985Z,22.78
2018-06-17T00:27:21.403Z,22.72
2018-06-17T00:29:48.839Z,22.59
2018-06-17T00:32:16.315Z,22.60
2018-06-17T00:34:43.763Z,22.57
2018-06-17T00:37:11.251Z,22.48
2018-06-17T00:39:38.729Z,22.52
2018-06-17T00:42:06.185Z,22.59
2018-06-17T00:44:33.871Z,22.60
2018-06-17T00:47:01.384Z,22.61
2018-06-17T00:49:28.884Z,22.62
2018-06-17T00:51:56.342Z,22.57
2018-06-17T00:54:23.844Z,22.44
2018-06-17T00:56:51.282Z,22.50
2018-06-17T00:59:18.696Z,22.55
2018-06-17T01:01:46.344Z,22.55
2018-06-17T01:04:13.819Z,22.48
2018-06-17T01:06:41.324Z,22.46
2018-06-17T01:09:08.788Z,22.43
2018-06-17T01:11:36.597Z,22.32
2018-06-17T01:14:04.073Z,22.19
2018-06-17T01:16:31.557Z,21.99
2018-06-17T01:18:59.006Z,21.88
2018-06-17T01:21:26.500Z,21.89
2018-06-17T01:23:53.961Z,21.87
2018-06-17T01:26:21.749Z,21.87
2018-06-17T01:28:49.203Z,21.85
2018-06-17T01:31:16.739Z,21.80
2018-06-17T01:33:44.234Z,21.72
2018-06-17T01:36:11.667Z,21.67
2018-06-17T01:38:39.189Z,21.66
2018-06-17T01:41:06.736Z,21.64
2018-06-17T01:43:34.163Z,21.61
2018-06-17T01:46:01.688Z,21.51
2018-06-17T01:48:29.121Z,21.49
2018-06-17T01:50:56.593Z,21.47
2018-06-17T01:53:24.184Z,21.35
2018-06-17T01:55:51.622Z,21.14
2018-06-17T01:58:19.182Z,21.09
2018-06-17T02:00:46.631Z,21.08
2018-06-17T02:03:14.070Z,21.10
2018-06-17T02:08:48.568Z,21.24
2018-06-17T02:11:33.918Z,21.06
2018-06-17T02:14:01.374Z,20.92
2018-06-17T02:16:28.837Z,20.87
2018-06-17T02:18:56.288Z,20.82
2018-06-17T02:21:23.768Z,20.88
2018-06-17T02:23:51.247Z,20.93
2018-06-17T02:26:18.728Z,20.93
2018-06-17T02:28:46.381Z,20.94
2018-06-17T02:31:13.783Z,20.92
2018-06-17T02:33:41.226Z,20.86
2018-06-17T02:36:08.756Z,20.88
2018-06-17T02:38:36.252Z,20.98
2018-06-17T02:41:03.809Z,21.02
2018-06-17T02:43:31.338Z,21.03
2018-06-17T02:45:58.789Z,20.93
2018-06-17T02:51:34.179Z,20.92
2018-06-17T02:54:16.590Z,20.77
2018-06-17T02:56:44.037Z,20.77
2018-06-17T02:59:11.477Z,20.82
2018-06-17T03:01:38.930Z,20.84
2018-06-17T03:04:06.394Z,20.87
2018-06-17T03:06:33.829Z,20.83
2018-06-17T03:09:01.286Z,20.85
2018-06-17T03:11:28.778Z,20.85
2018-06-17T03:13:56.241Z,20.88
2018-06-17T03:16:23.806Z,20.94
2018-06-17T03:18:51.280Z,21.01
2018-06-17T03:21:18.905Z,21.04
2018-06-17T03:23:46.354Z,21.01
2018-06-17T03:29:22.670Z,20.90
2018-06-17T03:31:50.171Z,20.78
2018-06-17T03:34:17.609Z,20.67
2018-06-17T03:36:45.629Z,20.70
2018-06-17T03:39:13.094Z,20.68
2018-06-17T03:41:40.553Z,20.52
2018-06-17T03:44:07.986Z,20.38
2018-06-17T03:46:35.479Z,20.33
2018-06-17T03:49:02.921Z,20.33
2018-06-17T03:51:30.461Z,20.38
2018-06-17T03:53:57.914Z,20.52
2018-06-17T03:56:25.384Z,20.60
2018-06-17T03:58:52.839Z,20.67
2018-06-17T04:01:20.304Z,20.72
2018-06-17T04:03:47.783Z,20.77
2018-06-17T04:06:15.267Z,20.83
2018-06-17T04:08:42.740Z,20.85
2018-06-17T04:11:10.336Z,20.88
2018-06-17T04:13:37.784Z,20.88
2018-06-17T04:16:05.323Z,20.95
2018-06-17T04:18:32.765Z,21.01
2018-06-17T04:21:00.222Z,21.06
2018-06-17T04:23:27.701Z,21.13
2018-06-17T04:25:55.160Z,21.24
2018-06-17T04:28:22.589Z,21.25
2018-06-17T04:30:50.045Z,21.18
2018-06-17T04:33:17.450Z,21.10
2018-06-17T04:35:44.984Z,21.12
2018-06-17T04:38:12.463Z,21.20
2018-06-17T04:40:39.910Z,21.05
2018-06-17T04:43:07.438Z,20.96
2018-06-17T04:45:34.933Z,20.88
2018-06-17T04:48:02.382Z,20.80
2018-06-17T04:50:29.799Z,20.75
2018-06-17T04:52:57.296Z,20.89
2018-06-17T04:55:24.903Z,20.90
2018-06-17T04:57:52.373Z,21.00
2018-06-17T05:00:19.874Z,21.01
2018-06-17T05:02:47.369Z,21.09
2018-06-17T05:05:14.799Z,21.28
2018-06-17T05:07:42.288Z,21.35
2018-06-17T05:10:09.719Z,21.45
2018-06-17T05:12:37.210Z,21.68
2018-06-17T05:15:04.878Z,21.89
2018-06-17T05:17:32.279Z,22.01
2018-06-17T05:19:59.747Z,22.06
2018-06-17T05:22:27.223Z,22.12
2018-06-17T05:24:54.740Z,22.05
2018-06-17T05:27:22.168Z,21.98
2018-06-17T05:29:49.723Z,21.85
2018-06-17T05:32:17.199Z,21.60
2018-06-17T05:34:44.661Z,21.58
2018-06-17T05:37:12.131Z,21.70
2018-06-17T05:39:39.561Z,21.80
2018-06-17T05:42:07.008Z,21.89
2018-06-17T05:44:34.411Z,22.01
2018-06-17T05:47:02.041Z,22.09
2018-06-17T05:49:29.526Z,22.09
2018-06-17T05:51:56.976Z,22.10
2018-06-17T05:54:24.469Z,22.15
2018-06-17T05:56:52.012Z,22.15
2018-06-17T05:59:19.451Z,22.16
2018-06-17T06:01:46.878Z,22.19
2018-06-17T06:04:14.352Z,22.14
2018-06-17T06:06:41.843Z,22.15
2018-06-17T06:09:09.337Z,22.15
2018-06-17T06:11:36.837Z,22.14
2018-06-17T06:14:04.466Z,22.09
2018-06-17T06:16:32.037Z,21.99
2018-06-17T06:18:59.458Z,22.00
2018-06-17T06:21:26.916Z,22.06
2018-06-17T06:23:54.402Z,22.18
2018-06-17T06:26:21.917Z,22.25
2018-06-17T06:28:49.515Z,22.29
2018-06-17T06:31:17.041Z,22.37
2018-06-17T06:33:44.498Z,22.40
2018-06-17T06:36:11.933Z,22.40
2018-06-17T06:38:39.390Z,22.48
2018-06-17T06:41:07.511Z,22.53
2018-06-17T06:43:35.028Z,22.62
2018-06-17T06:46:02.492Z,22.58
2018-06-17T06:48:29.959Z,22.58
2018-06-17T06:50:57.441Z,22.69
2018-06-17T06:53:24.941Z,22.75
2018-06-17T06:55:52.489Z,22.75
2018-06-17T06:58:19.978Z,22.81
2018-06-17T07:00:47.755Z,22.85
2018-06-17T07:06:31.441Z,23.27
2018-06-17T07:09:08.587Z,23.34
2018-06-17T07:11:36.145Z,23.39
2018-06-17T07:14:03.597Z,23.38
2018-06-17T07:19:43.207Z,23.87
2018-06-17T07:22:11.644Z,24.34
2018-06-17T07:24:39.105Z,24.38
2018-06-17T07:27:18.374Z,24.25
2018-06-17T07:29:45.883Z,24.16
2018-06-17T07:32:13.318Z,24.15
2018-06-17T07:34:40.719Z,24.28
2018-06-17T07:37:07.763Z,24.71
2018-06-17T07:39:34.788Z,25.48
2018-06-17T07:42:02.238Z,25.97
2018-06-17T07:44:29.679Z,26.15
2018-06-17T07:46:57.085Z,26.23
2018-06-17T07:52:46.149Z,26.37
2018-06-17T07:55:13.815Z,26.57
2018-06-17T07:57:41.873Z,26.97
2018-06-17T08:00:09.424Z,27.07
2018-06-17T08:02:36.907Z,27.25
2018-06-17T08:05:03.900Z,26.69
2018-06-17T08:07:31.343Z,27.28
2018-06-17T08:09:58.840Z,27.86
2018-06-17T08:12:26.543Z,27.93
2018-06-17T08:14:54.065Z,28.31
2018-06-17T08:17:21.530Z,28.49
2018-06-17T08:19:49.014Z,28.58
2018-06-17T08:22:16.060Z,28.62
2018-06-17T08:24:43.104Z,28.45
2018-06-17T08:27:10.161Z,27.82
2018-06-17T08:29:37.159Z,27.89
2018-06-17T08:32:04.363Z,27.77
2018-06-17T08:34:31.337Z,28.00
2018-06-17T08:36:58.320Z,28.11
2018-06-17T08:39:25.301Z,28.43
2018-06-17T08:41:52.341Z,28.38
2018-06-17T08:44:19.348Z,28.38
2018-06-17T08:46:46.331Z,28.42
2018-06-17T08:49:13.335Z,28.46
2018-06-17T08:51:40.419Z,28.30
2018-06-17T08:54:07.479Z,28.01
2018-06-17T08:56:34.652Z,28.27
2018-06-17T08:59:01.665Z,27.92
2018-06-17T09:01:28.689Z,28.07
2018-06-17T09:03:55.790Z,28.35
2018-06-17T09:06:22.778Z,28.46
2018-06-17T09:08:50.402Z,28.77
2018-06-17T09:11:17.391Z,29.13
2018-06-17T09:13:44.455Z,29.21
2018-06-17T09:16:11.463Z,28.75
2018-06-17T09:18:38.655Z,29.25
2018-06-17T09:21:05.713Z,29.67
2018-06-17T09:23:32.753Z,29.61
2018-06-17T09:25:59.798Z,29.10
2018-06-17T09:28:27.271Z,29.19
2018-06-17T09:30:54.912Z,29.02
2018-06-17T09:33:22.490Z,28.99
2018-06-17T09:35:49.520Z,28.88
2018-06-17T09:38:16.980Z,29.36
2018-06-17T09:40:44.463Z,29.59
2018-06-17T09:43:11.961Z,29.42
2018-06-17T09:45:39.624Z,29.49
2018-06-17T09:48:06.619Z,29.09
2018-06-17T09:50:34.061Z,28.93
2018-06-17T09:53:01.596Z,28.84
2018-06-17T09:55:29.068Z,28.67
2018-06-17T09:57:56.604Z,28.41
2018-06-17T10:00:24.104Z,28.59
2018-06-17T10:02:51.602Z,28.99
2018-06-17T10:05:19.061Z,29.11
2018-06-17T10:07:46.617Z,29.17
2018-06-17T10:10:14.171Z,29.26
2018-06-17T10:12:41.799Z,29.21
2018-06-17T10:15:09.363Z,29.28
2018-06-17T10:17:36.804Z,29.44
2018-06-17T10:20:04.261Z,29.78
2018-06-17T10:22:31.298Z,29.74
2018-06-17T10:24:58.605Z,29.82
2018-06-17T10:27:26.105Z,29.75
2018-06-17T10:29:53.574Z,29.51
2018-06-17T10:32:21.111Z,28.85
2018-06-17T10:37:22.447Z,27.64
2018-06-17T10:39:50.189Z,27.34
2018-06-17T10:42:17.656Z,27.08
2018-06-17T10:44:45.136Z,26.94
2018-06-17T10:47:12.795Z,26.85
2018-06-17T10:49:40.300Z,26.70
2018-06-17T10:52:07.752Z,26.90
2018-06-17T10:54:35.299Z,27.40
2018-06-17T10:57:02.755Z,27.61
2018-06-17T10:59:30.475Z,27.57
2018-06-17T11:01:58.247Z,27.53
2018-06-17T11:04:25.650Z,27.91
2018-06-17T11:06:53.155Z,28.14
2018-06-17T11:09:20.689Z,28.34
2018-06-17T11:11:48.109Z,28.71
2018-06-17T11:14:15.569Z,28.66
2018-06-17T11:16:43.432Z,28.77
2018-06-17T11:19:10.908Z,29.08
2018-06-17T11:21:38.379Z,29.07
2018-06-17T11:24:05.881Z,28.65
2018-06-17T11:26:33.432Z,28.48
2018-06-17T11:29:00.880Z,28.37
2018-06-17T11:31:28.377Z,27.90
2018-06-17T11:33:55.926Z,27.66
2018-06-17T11:36:23.493Z,27.99
2018-06-17T11:38:50.992Z,28.62
2018-06-17T11:41:18.958Z,28.90
2018-06-17T11:43:46.633Z,28.81
2018-06-17T11:46:14.155Z,28.88
2018-06-17T11:48:41.576Z,28.86
2018-06-17T11:51:09.181Z,28.95
2018-06-17T11:53:36.656Z,29.23
2018-06-17T11:56:04.143Z,29.75
2018-06-17T11:58:31.601Z,30.04
2018-06-17T12:00:59.051Z,30.17
2018-06-17T12:03:27.281Z,29.55
2018-06-17T12:05:54.752Z,29.05
2018-06-17T12:08:22.309Z,28.87
2018-06-17T12:10:49.771Z,29.08
2018-06-17T12:13:17.213Z,29.03
2018-06-17T12:15:44.847Z,28.99
2018-06-17T12:18:12.302Z,28.93
2018-06-17T12:20:39.811Z,28.93
2018-06-17T12:23:07.324Z,29.37
2018-06-17T12:25:34.771Z,29.62
2018-06-17T12:28:02.229Z,29.82
2018-06-17T12:30:29.665Z,29.29
2018-06-17T12:32:57.537Z,29.67
2018-06-17T12:35:25.668Z,29.31
2018-06-17T12:37:53.156Z,28.97
2018-06-17T12:40:20.766Z,28.85
2018-06-17T12:42:48.208Z,28.97
2018-06-17T12:45:15.685Z,29.75
2018-06-17T12:47:43.189Z,29.81
2018-06-17T12:50:10.704Z,29.29
2018-06-17T12:52:38.170Z,28.94
2018-06-17T12:55:05.613Z,28.68
2018-06-17T12:57:33.040Z,28.21
2018-06-17T13:00:00.493Z,27.88
2018-06-17T13:02:28.049Z,27.96
2018-06-17T13:04:55.538Z,27.69
2018-06-17T13:07:23.026Z,27.28
2018-06-17T13:09:50.482Z,27.09
2018-06-17T13:12:18.036Z,27.06
2018-06-17T13:14:45.481Z,27.22
2018-06-17T13:17:12.965Z,27.37
2018-06-17T13:19:40.616Z,27.40
2018-06-17T13:22:08.099Z,27.46
2018-06-17T13:24:36.323Z,27.42
2018-06-17T13:27:03.765Z,27.28
2018-06-17T13:29:31.159Z,27.38
2018-06-17T13:31:58.626Z,27.51
2018-06-17T13:34:26.108Z,27.44
2018-06-17T13:36:53.534Z,27.19
2018-06-17T13:39:21.062Z,27.11
2018-06-17T13:41:48.462Z,27.15
2018-06-17T13:44:15.975Z,27.18
2018-06-17T13:46:43.426Z,27.12
2018-06-17T13:49:11.621Z,26.94
2018-06-17T13:51:39.098Z,26.95
2018-06-17T13:54:06.612Z,26.89
2018-06-17T13:56:34.173Z,26.87
2018-06-17T13:59:01.681Z,26.89
2018-06-17T14:01:29.204Z,27.01
2018-06-17T14:03:56.690Z,27.25
2018-06-17T14:06:24.180Z,27.36
2018-06-17T14:08:51.659Z,27.70
2018-06-17T14:11:19.313Z,27.72
2018-06-17T14:13:46.810Z,27.58
2018-06-17T14:16:14.403Z,27.58
2018-06-17T14:18:41.907Z,27.62
2018-06-17T14:21:09.315Z,27.72
2018-06-17T14:23:36.765Z,27.78
2018-06-17T14:26:04.227Z,27.63
2018-06-17T14:28:31.709Z,27.92
2018-06-17T14:30:59.322Z,27.89
2018-06-17T14:33:26.775Z,27.81
2018-06-17T14:35:54.343Z,27.85
2018-06-17T14:38:22.583Z,27.97
2018-06-17T14:40:50.014Z,28.13
2018-06-17T14:46:11.619Z,28.45
2018-06-17T14:51:52.054Z,28.86
2018-06-17T14:54:19.511Z,28.57
2018-06-17T14:56:47.050Z,28.56
2018-06-17T14:59:14.576Z,28.52
2018-06-17T15:01:41.985Z,28.28
2018-06-17T15:04:09.541Z,28.08
2018-06-17T15:06:37.021Z,27.95
2018-06-17T15:09:04.494Z,27.74
2018-06-17T15:11:32.156Z,27.47
2018-06-17T15:13:59.682Z,27.09
2018-06-17T15:16:27.122Z,26.83
2018-06-17T15:18:54.533Z,26.72
2018-06-17T15:21:22.018Z,26.62
2018-06-17T15:23:49.478Z,26.61
2018-06-17T15:26:16.980Z,26.55
2018-06-17T15:28:44.445Z,26.54
2018-06-17T15:31:11.921Z,26.45
2018-06-17T15:36:49.240Z,26.24
2018-06-17T15:39:17.313Z,26.15
2018-06-17T15:41:45.046Z,26.02
2018-06-17T15:44:13.417Z,25.89
2018-06-17T15:46:41.005Z,25.79
2018-06-17T15:49:08.473Z,25.73
2018-06-17T15:51:35.959Z,25.73
2018-06-17T15:54:03.503Z,25.80
2018-06-17T15:56:31.067Z,25.69
2018-06-17T15:58:58.489Z,25.63
2018-06-17T16:01:25.921Z,25.59
2018-06-17T16:03:53.526Z,25.61
2018-06-17T16:06:21.014Z,25.73
2018-06-17T16:08:48.524Z,25.87
2018-06-17T16:11:15.910Z,26.00
2018-06-17T16:16:57.571Z,26.03
2018-06-17T16:19:30.904Z,26.06
2018-06-17T16:21:58.773Z,26.13
2018-06-17T16:24:27.071Z,26.21
2018-06-17T16:26:54.612Z,26.36
2018-06-17T16:29:22.026Z,26.30
2018-06-17T16:31:49.174Z,26.11
2018-06-17T16:34:16.652Z,26.04
2018-06-17T16:36:44.171Z,26.01
2018-06-17T16:39:11.898Z,25.88
2018-06-17T16:41:39.353Z,25.78
2018-06-17T16:44:06.951Z,25.74
2018-06-17T16:46:34.626Z,25.53
2018-06-17T16:49:02.075Z,25.28
2018-06-17T16:51:29.585Z,25.20
2018-06-17T16:54:02.696Z,25.04
2018-06-17T16:56:35.531Z,24.94
2018-06-17T17:01:58.278Z,24.99
2018-06-17T17:04:25.909Z,24.97
2018-06-17T17:06:53.403Z,24.74
2018-06-17T17:09:20.899Z,24.54
2018-06-17T17:11:48.363Z,24.40
2018-06-17T17:14:15.807Z,24.33
2018-06-17T17:16:43.270Z,24.28
2018-06-17T17:19:10.728Z,24.25
2018-06-17T17:21:38.203Z,24.16
2018-06-17T17:24:05.734Z,24.01
2018-06-17T17:26:33.401Z,23.91
2018-06-17T17:29:00.876Z,23.84
2018-06-17T17:31:28.456Z,23.84
2018-06-17T17:34:01.569Z,23.84
2018-06-17T17:39:21.270Z,23.90
2018-06-17T17:41:48.853Z,23.76
2018-06-17T17:44:16.383Z,23.61
2018-06-17T17:46:43.775Z,23.45
2018-06-17T17:49:12.252Z,23.42
2018-06-17T17:51:39.750Z,23.40
2018-06-17T17:54:07.299Z,23.28
2018-06-17T17:56:34.763Z,23.24
2018-06-17T17:59:02.240Z,23.18
2018-06-17T18:01:30.569Z,23.21
2018-06-17T18:03:58.027Z,23.19
2018-06-17T18:06:25.493Z,23.17
2018-06-17T18:08:52.912Z,23.20
2018-06-17T18:11:20.381Z,23.24
2018-06-17T18:13:48.333Z,23.32
2018-06-17T18:16:15.876Z,23.47
2018-06-17T18:18:43.383Z,23.56
2018-06-17T18:21:10.839Z,23.61
2018-06-17T18:23:38.377Z,23.70
2018-06-17T18:29:21.539Z,23.97
2018-06-17T18:31:48.999Z,23.77
2018-06-17T18:34:22.101Z,23.67
2018-06-17T18:36:49.609Z,23.81
2018-06-17T18:39:17.148Z,23.65
2018-06-17T18:41:44.622Z,23.46
2018-06-17T18:44:12.185Z,23.40
2018-06-17T18:46:39.863Z,23.37
2018-06-17T18:49:07.584Z,23.52
2018-06-17T18:51:35.154Z,23.45
2018-06-17T18:54:02.619Z,23.37
2018-06-17T18:56:30.074Z,23.31
2018-06-17T18:58:57.530Z,23.29
2018-06-17T19:01:25.015Z,23.22
2018-06-17T19:03:52.525Z,23.26
2018-06-17T19:06:20.240Z,23.22
2018-06-17T19:08:47.733Z,23.08
2018-06-17T19:11:21.581Z,22.98
2018-06-17T19:13:53.353Z,23.01
2018-06-17T19:19:18.946Z,23.05
2018-06-17T19:21:46.452Z,22.92
2018-06-17T19:24:13.994Z,22.82
2018-06-17T19:26:41.691Z,22.82
2018-06-17T19:29:09.124Z,22.76
2018-06-17T19:31:37.876Z,22.62
2018-06-17T19:34:05.678Z,22.51
2018-06-17T19:36:33.300Z,22.52
2018-06-17T19:39:00.778Z,22.47
2018-06-17T19:41:28.263Z,22.42
2018-06-17T19:43:56.519Z,22.36
2018-06-17T19:46:24.898Z,22.26
2018-06-17T19:49:02.694Z,22.16
2018-06-17T19:54:39.018Z,22.13
2018-06-17T20:00:16.578Z,22.19
2018-06-17T20:02:45.203Z,22.19
2018-06-17T20:05:12.772Z,22.16
2018-06-17T20:07:40.182Z,22.19
2018-06-17T20:10:08.664Z,22.13
2018-06-17T20:12:36.272Z,22.05
2018-06-17T20:15:03.710Z,21.95
2018-06-17T20:17:31.248Z,21.85
2018-06-17T20:19:58.755Z,21.76
2018-06-17T20:22:26.183Z,21.72
2018-06-17T20:24:53.663Z,21.72
2018-06-17T20:27:21.064Z,21.74
2018-06-17T20:29:48.681Z,21.69
2018-06-17T20:32:16.171Z,21.61
2018-06-17T20:37:57.493Z,21.73
2018-06-17T20:40:24.931Z,21.68
2018-06-17T20:42:57.953Z,21.70
2018-06-17T20:45:25.492Z,21.73
2018-06-17T20:47:53.055Z,21.69
2018-06-17T20:50:20.631Z,21.69
2018-06-17T20:52:48.061Z,21.76
2018-06-17T20:55:15.514Z,21.80
2018-06-17T20:57:43.045Z,21.73
2018-06-17T21:00:10.516Z,21.72
2018-06-17T21:02:37.932Z,21.73
2018-06-17T21:05:05.415Z,21.74
2018-06-17T21:07:32.851Z,21.74
2018-06-17T21:10:00.316Z,21.71
2018-06-17T21:12:27.794Z,21.72
2018-06-17T21:14:55.257Z,21.68
2018-06-17T21:17:22.716Z,21.58
2018-06-17T21:19:55.877Z,21.52
2018-06-17T21:25:31.991Z,21.57
2018-06-17T21:27:59.455Z,21.59
2018-06-17T21:30:26.928Z,21.52
2018-06-17T21:32:54.437Z,21.53
2018-06-17T21:35:21.876Z,21.54
2018-06-17T21:37:49.397Z,21.51
2018-06-17T21:40:16.852Z,21.47
2018-06-17T21:42:44.289Z,21.48
2018-06-17T21:45:11.789Z,21.51
2018-06-17T21:47:39.234Z,21.54
2018-06-17T21:50:06.718Z,21.57
2018-06-17T21:52:34.138Z,21.59
2018-06-17T21:55:01.655Z,21.58
2018-06-17T21:57:29.106Z,21.59
2018-06-17T21:59:56.542Z,21.57
2018-06-17T22:02:23.951Z,21.53
2018-06-17T22:04:51.684Z,21.55
2018-06-17T22:07:19.213Z,21.51
2018-06-17T22:09:52.360Z,21.42
2018-06-17T22:15:31.726Z,21.54
2018-06-17T22:17:59.211Z,21.52
2018-06-17T22:20:26.659Z,21.40
2018-06-17T22:22:54.141Z,21.35
2018-06-17T22:25:21.636Z,21.38
2018-06-17T22:27:49.274Z,21.35
2018-06-17T22:30:16.834Z,21.36
2018-06-17T22:32:44.316Z,21.39
2018-06-17T22:35:11.752Z,21.36
2018-06-17T22:37:39.266Z,21.39
2018-06-17T22:40:06.670Z,21.40
2018-06-17T22:42:34.689Z,21.36
2018-06-17T22:45:02.194Z,21.31
2018-06-17T22:47:29.663Z,21.30
2018-06-17T22:49:57.194Z,21.26
2018-06-17T22:52:24.701Z,21.24
2018-06-17T22:54:52.123Z,21.18
2018-06-17T23:00:26.695Z,21.35
2018-06-17T23:06:09.111Z,21.44
2018-06-17T23:11:28.829Z,21.45
2018-06-17T23:13:56.303Z,21.44
2018-06-17T23:16:24.077Z,21.29
2018-06-17T23:18:51.567Z,21.05
2018-06-17T23:21:19.038Z,20.95
2018-06-17T23:23:46.554Z,20.89
2018-06-17T23:26:14.009Z,20.87
2018-06-17T23:28:41.411Z,20.86
2018-06-17T23:31:08.894Z,20.87
2018-06-17T23:33:36.369Z,20.92
2018-06-17T23:36:03.898Z,20.94
2018-06-17T23:38:31.422Z,20.92
2018-06-17T23:40:58.899Z,20.90
2018-06-17T23:43:26.343Z,20.94
2018-06-17T23:45:53.754Z,20.97
2018-06-17T23:51:28.329Z,21.25
2018-06-17T23:56:48.920Z,21.29
2018-06-17T23:59:17.370Z,21.20
